sensor_id;sensor_type;location;lat;lon;timestamp;P1;durP1;ratioP1;P2;durP2;ratioP2
70800;SDS011;59616;52.170;5.386;2022-10-29T00:00:40;14.35;;;3.42;;
70800;SDS011;59616;52.170;5.386;2022-10-29T00:03:07;19.73;;;3.78;;
70800;SDS011;59616;52.170;5.386;2022-10-29T00:05:34;16.50;;;3.38;;
70800;SDS011;59616;52.170;5.386;2022-10-29T00:08:02;17.60;;;3.17;;
70800;SDS011;59616;52.170;5.386;2022-10-29T00:10:29;17.65;;;3.67;;
70800;SDS011;59616;52.170;5.386;2022-10-29T00:12:58;14.90;;;3.60;;
70800;SDS011;59616;52.170;5.386;2022-10-29T00:15:26;13.77;;;3.10;;
70800;SDS011;59616;52.170;5.386;2022-10-29T00:17:56;16.83;;;3.30;;
70800;SDS011;59616;52.170;5.386;2022-10-29T00:20:23;19.30;;;3.53;;
70800;SDS011;59616;52.170;5.386;2022-10-29T00:22:53;20.48;;;3.63;;
70800;SDS011;59616;52.170;5.386;2022-10-29T00:25:21;15.73;;;3.95;;
70800;SDS011;59616;52.170;5.386;2022-10-29T00:27:48;13.65;;;3.47;;
70800;SDS011;59616;52.170;5.386;2022-10-29T00:30:15;12.70;;;3.35;;
70800;SDS011;59616;52.170;5.386;2022-10-29T00:32:42;18.02;;;3.38;;
70800;SDS011;59616;52.170;5.386;2022-10-29T00:35:09;16.50;;;3.80;;
70800;SDS011;59616;52.170;5.386;2022-10-29T00:37:36;17.25;;;3.28;;
70800;SDS011;59616;52.170;5.386;2022-10-29T00:40:06;16.00;;;3.33;;
70800;SDS011;59616;52.170;5.386;2022-10-29T00:42:33;15.55;;;3.75;;
70800;SDS011;59616;52.170;5.386;2022-10-29T00:45:00;13.30;;;3.15;;
70800;SDS011;59616;52.170;5.386;2022-10-29T00:47:28;15.30;;;3.42;;
70800;SDS011;59616;52.170;5.386;2022-10-29T00:50:05;14.23;;;3.60;;
70800;SDS011;59616;52.170;5.386;2022-10-29T00:52:33;14.50;;;3.70;;
70800;SDS011;59616;52.170;5.386;2022-10-29T00:55:03;18.35;;;3.72;;
70800;SDS011;59616;52.170;5.386;2022-10-29T00:57:42;18.98;;;3.95;;
70800;SDS011;59616;52.170;5.386;2022-10-29T01:00:12;15.80;;;3.25;;
70800;SDS011;59616;52.170;5.386;2022-10-29T01:02:39;16.17;;;3.80;;
70800;SDS011;59616;52.170;5.386;2022-10-29T01:05:08;14.73;;;3.60;;
70800;SDS011;59616;52.170;5.386;2022-10-29T01:07:35;19.08;;;3.53;;
70800;SDS011;59616;52.170;5.386;2022-10-29T01:10:03;15.15;;;3.67;;
70800;SDS011;59616;52.170;5.386;2022-10-29T01:12:45;15.13;;;3.65;;
70800;SDS011;59616;52.170;5.386;2022-10-29T01:15:22;14.90;;;3.88;;
70800;SDS011;59616;52.170;5.386;2022-10-29T01:17:57;15.20;;;3.92;;
70800;SDS011;59616;52.170;5.386;2022-10-29T01:20:37;13.70;;;4.10;;
70800;SDS011;59616;52.170;5.386;2022-10-29T01:31:04;12.43;;;3.60;;
70800;SDS011;59616;52.170;5.386;2022-10-29T01:36:22;17.10;;;4.20;;
70800;SDS011;59616;52.170;5.386;2022-10-29T01:39:02;13.73;;;3.33;;
70800;SDS011;59616;52.170;5.386;2022-10-29T01:41:33;12.32;;;2.88;;
70800;SDS011;59616;52.170;5.386;2022-10-29T01:44:18;14.80;;;3.28;;
70800;SDS011;59616;52.170;5.386;2022-10-29T01:47:13;13.13;;;3.22;;
70800;SDS011;59616;52.170;5.386;2022-10-29T01:52:10;12.75;;;2.63;;
70800;SDS011;59616;52.170;5.386;2022-10-29T01:54:40;13.77;;;2.67;;
70800;SDS011;59616;52.170;5.386;2022-10-29T01:59:54;15.25;;;3.03;;
70800;SDS011;59616;52.170;5.386;2022-10-29T02:02:24;18.85;;;3.30;;
70800;SDS011;59616;52.170;5.386;2022-10-29T02:10:05;14.18;;;3.05;;
70800;SDS011;59616;52.170;5.386;2022-10-29T02:12:34;17.65;;;3.60;;
70800;SDS011;59616;52.170;5.386;2022-10-29T02:15:18;18.50;;;3.65;;
70800;SDS011;59616;52.170;5.386;2022-10-29T02:17:46;18.88;;;3.83;;
70800;SDS011;59616;52.170;5.386;2022-10-29T02:20:14;22.60;;;3.80;;
70800;SDS011;59616;52.170;5.386;2022-10-29T02:22:41;20.73;;;4.00;;
70800;SDS011;59616;52.170;5.386;2022-10-29T02:25:09;14.90;;;3.35;;
70800;SDS011;59616;52.170;5.386;2022-10-29T02:27:36;16.77;;;3.83;;
70800;SDS011;59616;52.170;5.386;2022-10-29T02:30:03;17.90;;;3.25;;
70800;SDS011;59616;52.170;5.386;2022-10-29T02:32:30;12.52;;;3.10;;
70800;SDS011;59616;52.170;5.386;2022-10-29T02:34:59;15.95;;;3.40;;
70800;SDS011;59616;52.170;5.386;2022-10-29T02:37:26;17.33;;;4.22;;
70800;SDS011;59616;52.170;5.386;2022-10-29T02:39:53;28.17;;;5.00;;
70800;SDS011;59616;52.170;5.386;2022-10-29T02:42:20;23.05;;;4.07;;
70800;SDS011;59616;52.170;5.386;2022-10-29T02:44:47;28.13;;;4.80;;
70800;SDS011;59616;52.170;5.386;2022-10-29T02:47:14;29.45;;;5.90;;
70800;SDS011;59616;52.170;5.386;2022-10-29T02:49:41;35.53;;;6.93;;
70800;SDS011;59616;52.170;5.386;2022-10-29T02:52:09;54.38;;;7.13;;
70800;SDS011;59616;52.170;5.386;2022-10-29T02:54:36;53.80;;;5.28;;
70800;SDS011;59616;52.170;5.386;2022-10-29T02:57:04;37.55;;;5.72;;
70800;SDS011;59616;52.170;5.386;2022-10-29T02:59:31;42.90;;;5.82;;
70800;SDS011;59616;52.170;5.386;2022-10-29T03:01:58;56.58;;;5.93;;
70800;SDS011;59616;52.170;5.386;2022-10-29T03:04:26;53.75;;;5.35;;
70800;SDS011;59616;52.170;5.386;2022-10-29T03:06:53;48.40;;;5.50;;
70800;SDS011;59616;52.170;5.386;2022-10-29T03:09:20;59.45;;;5.78;;
70800;SDS011;59616;52.170;5.386;2022-10-29T03:11:47;81.70;;;6.13;;
70800;SDS011;59616;52.170;5.386;2022-10-29T03:14:14;56.33;;;5.63;;
70800;SDS011;59616;52.170;5.386;2022-10-29T03:16:41;49.65;;;5.43;;
70800;SDS011;59616;52.170;5.386;2022-10-29T03:19:08;78.20;;;6.70;;
70800;SDS011;59616;52.170;5.386;2022-10-29T03:21:35;38.63;;;5.40;;
70800;SDS011;59616;52.170;5.386;2022-10-29T03:24:03;40.15;;;4.90;;
70800;SDS011;59616;52.170;5.386;2022-10-29T03:26:30;45.85;;;5.40;;
70800;SDS011;59616;52.170;5.386;2022-10-29T03:28:57;37.72;;;5.30;;
70800;SDS011;59616;52.170;5.386;2022-10-29T03:31:24;78.90;;;6.55;;
70800;SDS011;59616;52.170;5.386;2022-10-29T03:33:52;55.00;;;5.88;;
70800;SDS011;59616;52.170;5.386;2022-10-29T03:36:19;56.88;;;5.80;;
70800;SDS011;59616;52.170;5.386;2022-10-29T03:38:46;48.75;;;5.63;;
70800;SDS011;59616;52.170;5.386;2022-10-29T03:41:13;61.47;;;6.50;;
70800;SDS011;59616;52.170;5.386;2022-10-29T03:43:40;32.20;;;5.38;;
70800;SDS011;59616;52.170;5.386;2022-10-29T03:46:07;46.10;;;5.45;;
70800;SDS011;59616;52.170;5.386;2022-10-29T03:48:34;45.80;;;5.78;;
70800;SDS011;59616;52.170;5.386;2022-10-29T03:51:02;41.92;;;5.72;;
70800;SDS011;59616;52.170;5.386;2022-10-29T03:53:33;54.95;;;5.40;;
70800;SDS011;59616;52.170;5.386;2022-10-29T03:56:01;60.53;;;6.20;;
70800;SDS011;59616;52.170;5.386;2022-10-29T03:58:28;25.58;;;5.28;;
70800;SDS011;59616;52.170;5.386;2022-10-29T04:00:56;51.03;;;6.05;;
70800;SDS011;59616;52.170;5.386;2022-10-29T04:03:24;42.83;;;5.72;;
70800;SDS011;59616;52.170;5.386;2022-10-29T04:05:51;33.38;;;4.95;;
70800;SDS011;59616;52.170;5.386;2022-10-29T04:08:18;25.33;;;5.30;;
70800;SDS011;59616;52.170;5.386;2022-10-29T04:10:46;30.95;;;5.72;;
70800;SDS011;59616;52.170;5.386;2022-10-29T04:13:13;24.73;;;5.18;;
70800;SDS011;59616;52.170;5.386;2022-10-29T04:15:41;38.38;;;5.85;;
70800;SDS011;59616;52.170;5.386;2022-10-29T04:18:08;20.83;;;5.22;;
70800;SDS011;59616;52.170;5.386;2022-10-29T04:20:35;20.08;;;5.13;;
70800;SDS011;59616;52.170;5.386;2022-10-29T04:23:22;19.52;;;5.50;;
70800;SDS011;59616;52.170;5.386;2022-10-29T04:26:09;16.30;;;5.28;;
70800;SDS011;59616;52.170;5.386;2022-10-29T04:28:56;18.23;;;5.07;;
70800;SDS011;59616;52.170;5.386;2022-10-29T04:31:24;14.10;;;5.60;;
70800;SDS011;59616;52.170;5.386;2022-10-29T04:33:53;18.02;;;5.60;;
70800;SDS011;59616;52.170;5.386;2022-10-29T04:36:20;13.60;;;5.43;;
70800;SDS011;59616;52.170;5.386;2022-10-29T04:38:48;15.45;;;5.25;;
70800;SDS011;59616;52.170;5.386;2022-10-29T04:41:15;14.98;;;5.55;;
70800;SDS011;59616;52.170;5.386;2022-10-29T04:43:43;16.05;;;5.30;;
70800;SDS011;59616;52.170;5.386;2022-10-29T04:46:10;15.80;;;5.43;;
70800;SDS011;59616;52.170;5.386;2022-10-29T04:48:37;16.05;;;5.75;;
70800;SDS011;59616;52.170;5.386;2022-10-29T04:51:04;15.80;;;6.05;;
70800;SDS011;59616;52.170;5.386;2022-10-29T04:53:31;14.15;;;5.85;;
70800;SDS011;59616;52.170;5.386;2022-10-29T04:55:59;13.82;;;5.47;;
70800;SDS011;59616;52.170;5.386;2022-10-29T04:58:26;16.17;;;5.82;;
70800;SDS011;59616;52.170;5.386;2022-10-29T05:00:59;17.20;;;5.85;;
70800;SDS011;59616;52.170;5.386;2022-10-29T05:03:26;14.85;;;5.88;;
70800;SDS011;59616;52.170;5.386;2022-10-29T05:05:53;15.10;;;5.90;;
70800;SDS011;59616;52.170;5.386;2022-10-29T05:08:20;14.52;;;5.93;;
70800;SDS011;59616;52.170;5.386;2022-10-29T05:10:47;18.92;;;6.13;;
70800;SDS011;59616;52.170;5.386;2022-10-29T05:13:14;18.67;;;6.30;;
70800;SDS011;59616;52.170;5.386;2022-10-29T05:15:42;17.15;;;6.43;;
70800;SDS011;59616;52.170;5.386;2022-10-29T05:18:13;14.13;;;6.50;;
70800;SDS011;59616;52.170;5.386;2022-10-29T05:20:40;14.48;;;6.10;;
70800;SDS011;59616;52.170;5.386;2022-10-29T05:23:07;15.75;;;5.97;;
70800;SDS011;59616;52.170;5.386;2022-10-29T05:25:36;20.73;;;6.53;;
70800;SDS011;59616;52.170;5.386;2022-10-29T05:28:05;15.23;;;6.00;;
70800;SDS011;59616;52.170;5.386;2022-10-29T05:30:32;16.20;;;6.07;;
70800;SDS011;59616;52.170;5.386;2022-10-29T05:32:59;17.00;;;6.40;;
70800;SDS011;59616;52.170;5.386;2022-10-29T05:35:26;15.00;;;6.40;;
70800;SDS011;59616;52.170;5.386;2022-10-29T05:37:54;15.50;;;6.00;;
70800;SDS011;59616;52.170;5.386;2022-10-29T05:40:22;15.85;;;6.63;;
70800;SDS011;59616;52.170;5.386;2022-10-29T05:42:49;12.95;;;5.97;;
70800;SDS011;59616;52.170;5.386;2022-10-29T05:45:16;17.58;;;6.30;;
70800;SDS011;59616;52.170;5.386;2022-10-29T05:47:43;17.17;;;6.25;;
70800;SDS011;59616;52.170;5.386;2022-10-29T05:50:11;14.52;;;6.38;;
70800;SDS011;59616;52.170;5.386;2022-10-29T05:52:38;16.27;;;6.53;;
70800;SDS011;59616;52.170;5.386;2022-10-29T05:55:05;16.08;;;6.28;;
70800;SDS011;59616;52.170;5.386;2022-10-29T05:57:33;12.38;;;5.68;;
70800;SDS011;59616;52.170;5.386;2022-10-29T06:00:03;15.75;;;6.43;;
70800;SDS011;59616;52.170;5.386;2022-10-29T06:02:37;16.10;;;6.80;;
70800;SDS011;59616;52.170;5.386;2022-10-29T06:05:04;19.17;;;6.40;;
70800;SDS011;59616;52.170;5.386;2022-10-29T06:07:31;13.93;;;6.45;;
70800;SDS011;59616;52.170;5.386;2022-10-29T06:09:58;15.10;;;6.30;;
70800;SDS011;59616;52.170;5.386;2022-10-29T06:12:25;17.00;;;6.35;;
70800;SDS011;59616;52.170;5.386;2022-10-29T06:14:59;15.52;;;5.95;;
70800;SDS011;59616;52.170;5.386;2022-10-29T06:17:26;17.45;;;6.90;;
70800;SDS011;59616;52.170;5.386;2022-10-29T06:19:53;17.35;;;7.00;;
70800;SDS011;59616;52.170;5.386;2022-10-29T06:22:20;14.98;;;6.20;;
70800;SDS011;59616;52.170;5.386;2022-10-29T06:24:47;13.45;;;6.32;;
70800;SDS011;59616;52.170;5.386;2022-10-29T06:27:14;16.50;;;6.65;;
70800;SDS011;59616;52.170;5.386;2022-10-29T06:29:41;18.83;;;7.07;;
70800;SDS011;59616;52.170;5.386;2022-10-29T06:32:08;16.63;;;6.93;;
70800;SDS011;59616;52.170;5.386;2022-10-29T06:34:35;14.73;;;6.78;;
70800;SDS011;59616;52.170;5.386;2022-10-29T06:37:02;14.40;;;6.38;;
70800;SDS011;59616;52.170;5.386;2022-10-29T06:39:29;20.17;;;7.28;;
70800;SDS011;59616;52.170;5.386;2022-10-29T06:41:56;14.75;;;7.05;;
70800;SDS011;59616;52.170;5.386;2022-10-29T06:44:28;19.42;;;6.97;;
70800;SDS011;59616;52.170;5.386;2022-10-29T06:46:55;18.13;;;7.35;;
70800;SDS011;59616;52.170;5.386;2022-10-29T06:49:22;18.83;;;7.10;;
70800;SDS011;59616;52.170;5.386;2022-10-29T06:51:50;15.13;;;7.10;;
70800;SDS011;59616;52.170;5.386;2022-10-29T06:54:17;18.08;;;6.72;;
70800;SDS011;59616;52.170;5.386;2022-10-29T06:56:44;17.48;;;7.43;;
70800;SDS011;59616;52.170;5.386;2022-10-29T06:59:11;15.10;;;6.90;;
70800;SDS011;59616;52.170;5.386;2022-10-29T07:01:38;19.85;;;6.65;;
70800;SDS011;59616;52.170;5.386;2022-10-29T07:04:05;15.82;;;7.03;;
70800;SDS011;59616;52.170;5.386;2022-10-29T07:06:32;16.60;;;7.03;;
70800;SDS011;59616;52.170;5.386;2022-10-29T07:09:00;16.75;;;6.65;;
70800;SDS011;59616;52.170;5.386;2022-10-29T07:11:27;18.20;;;7.50;;
70800;SDS011;59616;52.170;5.386;2022-10-29T07:13:54;16.65;;;6.78;;
70800;SDS011;59616;52.170;5.386;2022-10-29T07:16:21;20.20;;;7.90;;
70800;SDS011;59616;52.170;5.386;2022-10-29T07:18:48;16.05;;;7.50;;
70800;SDS011;59616;52.170;5.386;2022-10-29T07:21:15;16.63;;;7.05;;
70800;SDS011;59616;52.170;5.386;2022-10-29T07:23:42;20.15;;;8.13;;
70800;SDS011;59616;52.170;5.386;2022-10-29T07:26:09;18.52;;;7.93;;
70800;SDS011;59616;52.170;5.386;2022-10-29T07:28:36;22.20;;;7.93;;
70800;SDS011;59616;52.170;5.386;2022-10-29T07:31:03;19.30;;;8.43;;
70800;SDS011;59616;52.170;5.386;2022-10-29T07:33:32;16.90;;;7.75;;
70800;SDS011;59616;52.170;5.386;2022-10-29T07:35:59;22.63;;;8.23;;
70800;SDS011;59616;52.170;5.386;2022-10-29T07:38:26;21.00;;;8.40;;
70800;SDS011;59616;52.170;5.386;2022-10-29T07:40:53;19.60;;;8.32;;
70800;SDS011;59616;52.170;5.386;2022-10-29T07:43:21;19.83;;;9.27;;
70800;SDS011;59616;52.170;5.386;2022-10-29T07:45:48;20.80;;;8.52;;
70800;SDS011;59616;52.170;5.386;2022-10-29T07:48:16;22.17;;;9.55;;
70800;SDS011;59616;52.170;5.386;2022-10-29T07:50:43;23.48;;;9.15;;
70800;SDS011;59616;52.170;5.386;2022-10-29T07:53:10;22.77;;;8.65;;
70800;SDS011;59616;52.170;5.386;2022-10-29T07:55:38;21.73;;;9.75;;
70800;SDS011;59616;52.170;5.386;2022-10-29T07:58:06;26.73;;;10.25;;
70800;SDS011;59616;52.170;5.386;2022-10-29T08:00:34;25.05;;;10.10;;
70800;SDS011;59616;52.170;5.386;2022-10-29T08:03:02;23.80;;;10.32;;
70800;SDS011;59616;52.170;5.386;2022-10-29T08:05:29;24.98;;;10.18;;
70800;SDS011;59616;52.170;5.386;2022-10-29T08:07:57;26.65;;;11.50;;
70800;SDS011;59616;52.170;5.386;2022-10-29T08:10:25;23.90;;;10.05;;
70800;SDS011;59616;52.170;5.386;2022-10-29T08:12:53;23.65;;;10.45;;
70800;SDS011;59616;52.170;5.386;2022-10-29T08:15:22;25.88;;;9.98;;
70800;SDS011;59616;52.170;5.386;2022-10-29T08:17:50;23.73;;;9.77;;
70800;SDS011;59616;52.170;5.386;2022-10-29T08:20:17;25.75;;;9.80;;
70800;SDS011;59616;52.170;5.386;2022-10-29T08:22:44;24.50;;;10.60;;
70800;SDS011;59616;52.170;5.386;2022-10-29T08:25:11;25.13;;;9.80;;
70800;SDS011;59616;52.170;5.386;2022-10-29T08:27:39;25.85;;;10.18;;
70800;SDS011;59616;52.170;5.386;2022-10-29T08:30:06;23.20;;;9.93;;
70800;SDS011;59616;52.170;5.386;2022-10-29T08:32:34;22.13;;;10.38;;
70800;SDS011;59616;52.170;5.386;2022-10-29T08:35:01;23.20;;;10.27;;
70800;SDS011;59616;52.170;5.386;2022-10-29T08:37:28;23.08;;;10.15;;
70800;SDS011;59616;52.170;5.386;2022-10-29T08:39:55;27.70;;;9.95;;
70800;SDS011;59616;52.170;5.386;2022-10-29T08:42:28;25.80;;;10.50;;
70800;SDS011;59616;52.170;5.386;2022-10-29T08:45:05;22.27;;;10.50;;
70800;SDS011;59616;52.170;5.386;2022-10-29T08:50:40;27.42;;;11.02;;
70800;SDS011;59616;52.170;5.386;2022-10-29T08:53:31;32.15;;;10.98;;
70800;SDS011;59616;52.170;5.386;2022-10-29T08:56:15;29.88;;;11.52;;
70800;SDS011;59616;52.170;5.386;2022-10-29T08:58:46;26.45;;;11.40;;
70800;SDS011;59616;52.170;5.386;2022-10-29T09:01:16;28.65;;;11.80;;
70800;SDS011;59616;52.170;5.386;2022-10-29T09:03:45;31.30;;;11.60;;
70800;SDS011;59616;52.170;5.386;2022-10-29T09:06:13;23.98;;;10.90;;
70800;SDS011;59616;52.170;5.386;2022-10-29T09:08:49;25.73;;;11.50;;
70800;SDS011;59616;52.170;5.386;2022-10-29T09:13:49;30.25;;;10.82;;
70800;SDS011;59616;52.170;5.386;2022-10-29T09:16:52;23.10;;;10.93;;
70800;SDS011;59616;52.170;5.386;2022-10-29T09:19:57;23.35;;;9.75;;
70800;SDS011;59616;52.170;5.386;2022-10-29T09:23:03;22.30;;;10.30;;
70800;SDS011;59616;52.170;5.386;2022-10-29T09:25:34;24.08;;;10.13;;
70800;SDS011;59616;52.170;5.386;2022-10-29T09:30:42;23.95;;;10.38;;
70800;SDS011;59616;52.170;5.386;2022-10-29T09:33:14;26.45;;;10.15;;
70800;SDS011;59616;52.170;5.386;2022-10-29T09:35:43;26.55;;;10.05;;
70800;SDS011;59616;52.170;5.386;2022-10-29T09:38:18;26.80;;;10.20;;
70800;SDS011;59616;52.170;5.386;2022-10-29T09:40:47;26.02;;;10.52;;
70800;SDS011;59616;52.170;5.386;2022-10-29T09:43:16;25.88;;;10.23;;
70800;SDS011;59616;52.170;5.386;2022-10-29T09:48:24;25.58;;;10.00;;
70800;SDS011;59616;52.170;5.386;2022-10-29T09:51:05;54.47;;;11.13;;
70800;SDS011;59616;52.170;5.386;2022-10-29T09:53:34;33.42;;;10.63;;
70800;SDS011;59616;52.170;5.386;2022-10-29T09:56:05;29.65;;;10.00;;
70800;SDS011;59616;52.170;5.386;2022-10-29T09:58:32;23.73;;;10.35;;
70800;SDS011;59616;52.170;5.386;2022-10-29T10:01:04;22.85;;;9.55;;
70800;SDS011;59616;52.170;5.386;2022-10-29T10:03:33;24.35;;;9.90;;
70800;SDS011;59616;52.170;5.386;2022-10-29T10:06:08;26.55;;;9.88;;
70800;SDS011;59616;52.170;5.386;2022-10-29T10:14:05;22.17;;;10.07;;
70800;SDS011;59616;52.170;5.386;2022-10-29T10:16:59;21.55;;;9.30;;
70800;SDS011;59616;52.170;5.386;2022-10-29T10:19:28;23.98;;;9.02;;
70800;SDS011;59616;52.170;5.386;2022-10-29T10:21:57;20.63;;;9.32;;
70800;SDS011;59616;52.170;5.386;2022-10-29T10:24:31;22.15;;;9.40;;
70800;SDS011;59616;52.170;5.386;2022-10-29T10:26:59;24.08;;;9.23;;
70800;SDS011;59616;52.170;5.386;2022-10-29T10:29:26;22.33;;;9.93;;
70800;SDS011;59616;52.170;5.386;2022-10-29T10:34:24;24.25;;;8.90;;
70800;SDS011;59616;52.170;5.386;2022-10-29T10:37:01;23.05;;;10.10;;
70800;SDS011;59616;52.170;5.386;2022-10-29T10:39:35;23.50;;;8.82;;
70800;SDS011;59616;52.170;5.386;2022-10-29T10:42:04;23.73;;;8.90;;
70800;SDS011;59616;52.170;5.386;2022-10-29T10:44:49;23.02;;;8.60;;
70800;SDS011;59616;52.170;5.386;2022-10-29T10:47:20;22.85;;;9.30;;
70800;SDS011;59616;52.170;5.386;2022-10-29T10:49:49;21.42;;;8.60;;
70800;SDS011;59616;52.170;5.386;2022-10-29T10:52:17;21.95;;;9.23;;
70800;SDS011;59616;52.170;5.386;2022-10-29T10:57:26;22.55;;;8.20;;
70800;SDS011;59616;52.170;5.386;2022-10-29T11:00:00;21.92;;;8.43;;
70800;SDS011;59616;52.170;5.386;2022-10-29T11:02:47;20.60;;;8.57;;
70800;SDS011;59616;52.170;5.386;2022-10-29T11:05:21;18.67;;;7.72;;
70800;SDS011;59616;52.170;5.386;2022-10-29T11:08:05;17.85;;;8.02;;
70800;SDS011;59616;52.170;5.386;2022-10-29T11:10:41;21.23;;;7.82;;
70800;SDS011;59616;52.170;5.386;2022-10-29T11:13:11;22.92;;;7.75;;
70800;SDS011;59616;52.170;5.386;2022-10-29T11:16:28;21.60;;;8.77;;
70800;SDS011;59616;52.170;5.386;2022-10-29T11:19:04;18.63;;;7.65;;
70800;SDS011;59616;52.170;5.386;2022-10-29T11:21:56;19.30;;;7.40;;
70800;SDS011;59616;52.170;5.386;2022-10-29T11:27:24;23.95;;;7.63;;
70800;SDS011;59616;52.170;5.386;2022-10-29T11:30:12;19.98;;;7.30;;
70800;SDS011;59616;52.170;5.386;2022-10-29T11:35:54;17.92;;;6.75;;
70800;SDS011;59616;52.170;5.386;2022-10-29T11:38:38;18.92;;;6.15;;
70800;SDS011;59616;52.170;5.386;2022-10-29T11:43:37;15.57;;;5.75;;
70800;SDS011;59616;52.170;5.386;2022-10-29T11:46:13;14.77;;;5.70;;
70800;SDS011;59616;52.170;5.386;2022-10-29T11:49:14;15.98;;;5.30;;
70800;SDS011;59616;52.170;5.386;2022-10-29T11:51:50;20.90;;;6.32;;
70800;SDS011;59616;52.170;5.386;2022-10-29T11:57:18;13.80;;;5.47;;
70800;SDS011;59616;52.170;5.386;2022-10-29T12:00:02;16.58;;;5.70;;
70800;SDS011;59616;52.170;5.386;2022-10-29T12:12:58;14.40;;;5.07;;
70800;SDS011;59616;52.170;5.386;2022-10-29T12:15:33;15.60;;;5.40;;
70800;SDS011;59616;52.170;5.386;2022-10-29T12:18:14;15.57;;;5.35;;
70800;SDS011;59616;52.170;5.386;2022-10-29T12:20:56;16.23;;;5.07;;
70800;SDS011;59616;52.170;5.386;2022-10-29T12:29:07;16.10;;;5.55;;
70800;SDS011;59616;52.170;5.386;2022-10-29T12:31:39;18.02;;;6.03;;
70800;SDS011;59616;52.170;5.386;2022-10-29T12:34:27;22.15;;;6.38;;
70800;SDS011;59616;52.170;5.386;2022-10-29T12:39:36;21.33;;;6.38;;
70800;SDS011;59616;52.170;5.386;2022-10-29T12:42:16;19.20;;;6.50;;
70800;SDS011;59616;52.170;5.386;2022-10-29T12:44:49;18.48;;;7.28;;
70800;SDS011;59616;52.170;5.386;2022-10-29T12:47:35;15.32;;;6.18;;
70800;SDS011;59616;52.170;5.386;2022-10-29T12:50:31;16.50;;;6.20;;
70800;SDS011;59616;52.170;5.386;2022-10-29T12:53:11;17.35;;;6.25;;
70800;SDS011;59616;52.170;5.386;2022-10-29T12:55:59;17.05;;;6.22;;
70800;SDS011;59616;52.170;5.386;2022-10-29T13:04:24;17.10;;;6.03;;
70800;SDS011;59616;52.170;5.386;2022-10-29T13:06:56;16.88;;;6.40;;
70800;SDS011;59616;52.170;5.386;2022-10-29T13:14:18;19.75;;;7.22;;
70800;SDS011;59616;52.170;5.386;2022-10-29T13:16:55;18.98;;;6.68;;
70800;SDS011;59616;52.170;5.386;2022-10-29T13:19:37;18.20;;;6.90;;
70800;SDS011;59616;52.170;5.386;2022-10-29T13:24:41;16.45;;;6.40;;
70800;SDS011;59616;52.170;5.386;2022-10-29T13:29:45;18.17;;;6.55;;
70800;SDS011;59616;52.170;5.386;2022-10-29T13:32:29;17.05;;;6.38;;
70800;SDS011;59616;52.170;5.386;2022-10-29T13:34:57;20.50;;;6.38;;
70800;SDS011;59616;52.170;5.386;2022-10-29T13:43:16;18.33;;;6.72;;
70800;SDS011;59616;52.170;5.386;2022-10-29T13:48:38;22.42;;;7.50;;
70800;SDS011;59616;52.170;5.386;2022-10-29T13:51:07;18.85;;;7.18;;
70800;SDS011;59616;52.170;5.386;2022-10-29T13:53:46;18.40;;;6.68;;
70800;SDS011;59616;52.170;5.386;2022-10-29T13:56:21;16.35;;;7.03;;
70800;SDS011;59616;52.170;5.386;2022-10-29T13:58:55;17.42;;;6.80;;
70800;SDS011;59616;52.170;5.386;2022-10-29T14:01:25;19.15;;;6.32;;
70800;SDS011;59616;52.170;5.386;2022-10-29T14:03:58;16.02;;;6.68;;
70800;SDS011;59616;52.170;5.386;2022-10-29T14:06:33;16.95;;;5.95;;
70800;SDS011;59616;52.170;5.386;2022-10-29T14:09:06;18.15;;;6.65;;
70800;SDS011;59616;52.170;5.386;2022-10-29T14:11:38;19.88;;;6.60;;
70800;SDS011;59616;52.170;5.386;2022-10-29T14:14:25;17.75;;;7.15;;
70800;SDS011;59616;52.170;5.386;2022-10-29T14:17:09;16.70;;;6.63;;
70800;SDS011;59616;52.170;5.386;2022-10-29T14:19:36;21.42;;;6.88;;
70800;SDS011;59616;52.170;5.386;2022-10-29T14:22:13;20.55;;;7.43;;
70800;SDS011;59616;52.170;5.386;2022-10-29T14:24:41;22.52;;;7.65;;
70800;SDS011;59616;52.170;5.386;2022-10-29T14:27:10;19.75;;;6.70;;
70800;SDS011;59616;52.170;5.386;2022-10-29T14:29:39;18.48;;;7.20;;
70800;SDS011;59616;52.170;5.386;2022-10-29T14:34:40;21.15;;;7.90;;
70800;SDS011;59616;52.170;5.386;2022-10-29T14:37:12;22.67;;;7.68;;
70800;SDS011;59616;52.170;5.386;2022-10-29T14:39:45;22.25;;;8.20;;
70800;SDS011;59616;52.170;5.386;2022-10-29T14:42:36;20.75;;;7.20;;
70800;SDS011;59616;52.170;5.386;2022-10-29T14:45:15;21.92;;;7.93;;
70800;SDS011;59616;52.170;5.386;2022-10-29T14:47:47;19.90;;;7.30;;
70800;SDS011;59616;52.170;5.386;2022-10-29T14:50:22;24.42;;;8.38;;
70800;SDS011;59616;52.170;5.386;2022-10-29T14:52:53;22.40;;;7.80;;
70800;SDS011;59616;52.170;5.386;2022-10-29T14:55:24;19.40;;;8.20;;
70800;SDS011;59616;52.170;5.386;2022-10-29T14:57:57;20.52;;;7.60;;
70800;SDS011;59616;52.170;5.386;2022-10-29T15:00:31;22.95;;;8.40;;
70800;SDS011;59616;52.170;5.386;2022-10-29T15:03:02;19.83;;;7.50;;
70800;SDS011;59616;52.170;5.386;2022-10-29T15:05:31;29.15;;;8.43;;
70800;SDS011;59616;52.170;5.386;2022-10-29T15:13:29;23.23;;;8.35;;
70800;SDS011;59616;52.170;5.386;2022-10-29T15:16:01;18.70;;;7.45;;
70800;SDS011;59616;52.170;5.386;2022-10-29T15:18:34;23.33;;;7.93;;
70800;SDS011;59616;52.170;5.386;2022-10-29T15:21:02;21.45;;;8.55;;
70800;SDS011;59616;52.170;5.386;2022-10-29T15:26:00;18.83;;;8.30;;
70800;SDS011;59616;52.170;5.386;2022-10-29T15:28:30;26.15;;;8.00;;
70800;SDS011;59616;52.170;5.386;2022-10-29T15:31:03;22.95;;;8.77;;
70800;SDS011;59616;52.170;5.386;2022-10-29T15:33:30;23.52;;;8.05;;
70800;SDS011;59616;52.170;5.386;2022-10-29T15:35:58;22.55;;;7.85;;
70800;SDS011;59616;52.170;5.386;2022-10-29T15:43:48;19.83;;;7.97;;
70800;SDS011;59616;52.170;5.386;2022-10-29T15:46:20;18.92;;;7.68;;
70800;SDS011;59616;52.170;5.386;2022-10-29T15:48:48;19.15;;;8.07;;
70800;SDS011;59616;52.170;5.386;2022-10-29T15:51:15;20.73;;;7.78;;
70800;SDS011;59616;52.170;5.386;2022-10-29T15:53:42;20.90;;;8.32;;
70800;SDS011;59616;52.170;5.386;2022-10-29T15:56:10;20.67;;;7.82;;
70800;SDS011;59616;52.170;5.386;2022-10-29T15:58:38;17.52;;;7.63;;
70800;SDS011;59616;52.170;5.386;2022-10-29T16:01:06;21.05;;;8.23;;
70800;SDS011;59616;52.170;5.386;2022-10-29T16:03:34;19.52;;;7.38;;
70800;SDS011;59616;52.170;5.386;2022-10-29T16:06:05;19.17;;;7.47;;
70800;SDS011;59616;52.170;5.386;2022-10-29T16:08:37;20.60;;;7.53;;
70800;SDS011;59616;52.170;5.386;2022-10-29T16:11:20;20.30;;;7.88;;
70800;SDS011;59616;52.170;5.386;2022-10-29T16:13:48;22.33;;;8.10;;
70800;SDS011;59616;52.170;5.386;2022-10-29T16:16:21;19.10;;;7.95;;
70800;SDS011;59616;52.170;5.386;2022-10-29T16:18:49;21.63;;;7.47;;
70800;SDS011;59616;52.170;5.386;2022-10-29T16:21:18;19.77;;;7.80;;
70800;SDS011;59616;52.170;5.386;2022-10-29T16:23:48;20.23;;;7.70;;
70800;SDS011;59616;52.170;5.386;2022-10-29T16:26:17;22.85;;;7.72;;
70800;SDS011;59616;52.170;5.386;2022-10-29T16:28:46;23.50;;;7.85;;
70800;SDS011;59616;52.170;5.386;2022-10-29T16:33:54;21.02;;;7.72;;
70800;SDS011;59616;52.170;5.386;2022-10-29T16:36:24;21.90;;;8.55;;
70800;SDS011;59616;52.170;5.386;2022-10-29T16:38:51;21.83;;;7.85;;
70800;SDS011;59616;52.170;5.386;2022-10-29T16:41:18;24.45;;;8.88;;
70800;SDS011;59616;52.170;5.386;2022-10-29T16:43:45;21.35;;;7.80;;
70800;SDS011;59616;52.170;5.386;2022-10-29T16:46:13;22.95;;;8.00;;
70800;SDS011;59616;52.170;5.386;2022-10-29T16:48:40;21.02;;;7.30;;
70800;SDS011;59616;52.170;5.386;2022-10-29T16:51:08;19.35;;;7.13;;